createdAt,value
2023-06-11T00:03:57.859Z,6.70
2023-06-11T00:09:00.969Z,5.90
2023-06-11T00:14:02.688Z,5.53
2023-06-11T00:19:04.765Z,5.53
2023-06-11T00:24:08.095Z,5.33
2023-06-11T00:29:09.902Z,5.60
2023-06-11T00:34:11.645Z,5.27
2023-06-11T00:39:14.787Z,5.17
2023-06-11T00:44:18.935Z,4.97
2023-06-11T00:49:20.962Z,4.97
2023-06-11T00:54:24.023Z,4.70
2023-06-11T00:59:26.375Z,5.07
2023-06-11T01:04:28.181Z,5.03
2023-06-11T01:09:31.923Z,5.23
2023-06-11T01:14:34.700Z,4.77
2023-06-11T01:19:55.360Z,4.70
2023-06-11T01:25:16.662Z,4.80
2023-06-11T01:30:22.018Z,4.70
2023-06-11T01:35:25.617Z,4.23
2023-06-11T01:40:27.590Z,4.50
2023-06-11T01:45:37.989Z,5.23
2023-06-11T01:50:39.721Z,5.10
2023-06-11T01:55:43.709Z,4.70
2023-06-11T02:00:48.809Z,4.57
2023-06-11T02:05:50.861Z,4.43
2023-06-11T02:10:52.678Z,5.07
2023-06-11T02:15:56.010Z,4.63
2023-06-11T02:20:57.801Z,5.27
2023-06-11T02:25:59.536Z,4.50
2023-06-11T02:31:03.626Z,4.60
2023-06-11T02:36:06.424Z,4.87
2023-06-11T02:41:08.217Z,5.43
2023-06-11T02:46:11.463Z,4.87
2023-06-11T02:51:13.599Z,4.70
2023-06-11T02:56:15.662Z,4.60
2023-06-11T03:01:18.766Z,5.30
2023-06-11T03:06:20.630Z,5.20
2023-06-11T03:11:22.373Z,5.23
2023-06-11T03:16:25.566Z,5.20
2023-06-11T03:21:27.470Z,4.73
2023-06-11T03:26:29.595Z,4.30
2023-06-11T03:31:33.004Z,4.30
2023-06-11T03:36:34.794Z,4.70
2023-06-11T03:41:38.594Z,5.43
2023-06-11T03:46:42.625Z,4.40
2023-06-11T03:51:44.391Z,4.83
2023-06-11T03:56:46.185Z,4.87
2023-06-11T04:01:49.288Z,6.17
2023-06-11T04:06:51.889Z,4.97
2023-06-11T04:11:54.024Z,5.20
2023-06-11T04:16:57.247Z,4.90
2023-06-11T04:21:59.047Z,4.77
2023-06-11T04:27:01.236Z,4.73
2023-06-11T04:32:05.232Z,5.03
2023-06-11T04:37:09.834Z,5.17
2023-06-11T04:42:15.547Z,4.53
2023-06-11T04:47:23.394Z,4.90
2023-06-11T04:52:25.257Z,5.70
2023-06-11T04:57:27.172Z,5.00
2023-06-11T05:02:30.800Z,5.20
2023-06-11T05:07:33.354Z,4.70
2023-06-11T05:12:35.352Z,5.30
2023-06-11T05:17:40.556Z,5.00
2023-06-11T05:22:43.186Z,5.00
2023-06-11T05:27:46.161Z,5.20
2023-06-11T05:32:49.991Z,5.33
2023-06-11T05:37:51.847Z,5.47
2023-06-11T05:42:53.859Z,5.63
2023-06-11T05:47:57.125Z,6.03
2023-06-11T05:52:59.398Z,5.10
2023-06-11T05:58:01.247Z,5.50
2023-06-11T06:03:05.783Z,5.73
2023-06-11T06:08:09.234Z,5.73
2023-06-11T06:13:11.080Z,5.70
2023-06-11T06:18:16.797Z,5.87
2023-06-11T06:23:19.385Z,5.97
2023-06-11T06:28:29.346Z,5.90
2023-06-11T06:33:36.640Z,5.33
2023-06-11T06:38:39.006Z,5.90
2023-06-11T06:43:41.422Z,5.50
2023-06-11T06:48:52.112Z,5.80
2023-06-11T06:53:54.131Z,6.37
2023-06-11T06:58:56.041Z,5.60
2023-06-11T07:03:59.327Z,6.03
2023-06-11T07:09:01.175Z,5.60
2023-06-11T07:14:03.241Z,5.83
2023-06-11T07:19:06.426Z,5.77
2023-06-11T07:24:09.188Z,6.40
2023-06-11T07:29:12.932Z,5.73
2023-06-11T07:34:18.039Z,5.63
2023-06-11T07:39:19.946Z,5.27
2023-06-11T07:44:21.749Z,5.50
2023-06-11T07:49:24.925Z,5.83
2023-06-11T07:54:26.729Z,5.60
2023-06-11T07:59:30.476Z,5.93
2023-06-11T08:04:33.719Z,5.60
2023-06-11T08:09:38.776Z,6.47
2023-06-11T08:14:40.484Z,5.57
2023-06-11T08:19:43.540Z,5.40
2023-06-11T08:24:45.318Z,5.13
2023-06-11T08:29:47.020Z,4.63
2023-06-11T08:34:50.842Z,5.70
2023-06-11T08:39:52.569Z,5.47
2023-06-11T08:44:54.269Z,5.27
2023-06-11T08:49:57.326Z,4.97
2023-06-11T08:54:59.173Z,4.87
2023-06-11T09:00:00.843Z,5.00
2023-06-11T09:05:05.123Z,4.97
2023-06-11T09:10:07.414Z,5.57
2023-06-11T09:15:10.800Z,4.40
2023-06-11T09:20:15.301Z,4.87
2023-06-11T09:25:20.241Z,4.73
2023-06-11T09:30:22.773Z,4.20
2023-06-11T09:35:26.704Z,4.57
2023-06-11T09:40:28.416Z,4.00
2023-06-11T09:45:32.726Z,3.77
2023-06-11T09:50:36.236Z,4.30
2023-06-11T09:55:38.010Z,4.40
2023-06-11T10:00:39.757Z,4.07
2023-06-11T10:05:42.787Z,4.25
2023-06-11T10:10:45.797Z,3.72
2023-06-11T10:15:47.587Z,3.70
2023-06-11T10:20:54.179Z,3.88
2023-06-11T10:25:56.108Z,3.47
2023-06-11T10:30:57.824Z,3.75
2023-06-11T10:36:02.857Z,4.00
2023-06-11T10:41:04.915Z,3.17
2023-06-11T10:46:13.175Z,3.42
2023-06-11T10:51:16.754Z,3.97
2023-06-11T10:56:20.447Z,4.03
2023-06-11T11:01:22.394Z,3.72
2023-06-11T11:06:29.273Z,3.93
2023-06-11T11:11:31.098Z,4.00
2023-06-11T11:16:32.914Z,4.13
2023-06-11T11:21:37.486Z,3.97
2023-06-11T11:26:42.152Z,4.50
2023-06-11T11:31:43.986Z,3.90
2023-06-11T11:36:47.080Z,3.97
2023-06-11T11:41:48.835Z,3.90
2023-06-11T11:46:55.744Z,3.90
2023-06-11T11:52:01.800Z,4.33
2023-06-11T11:57:03.865Z,3.90
2023-06-11T12:02:06.301Z,4.50
2023-06-11T12:07:12.575Z,4.13
2023-06-11T12:12:14.396Z,4.20
2023-06-11T12:17:16.112Z,4.10
2023-06-11T12:22:20.646Z,4.30
2023-06-11T12:27:24.202Z,4.23
2023-06-11T12:32:26.441Z,4.23
2023-06-11T12:37:29.671Z,4.40
2023-06-11T12:42:33.526Z,4.10
2023-06-11T12:47:36.011Z,4.07
2023-06-11T12:52:41.253Z,4.00
2023-06-11T12:57:42.965Z,4.13
2023-06-11T13:02:45.251Z,4.40
2023-06-11T13:07:49.778Z,4.20
2023-06-11T13:12:53.029Z,4.50
2023-06-11T13:17:55.007Z,4.03
2023-06-11T13:22:58.140Z,4.47
2023-06-11T13:27:59.948Z,4.43
2023-06-11T13:33:01.837Z,4.30
2023-06-11T13:38:06.033Z,3.70
2023-06-11T13:43:07.810Z,4.30
2023-06-11T13:48:12.958Z,4.40
2023-06-11T13:53:16.197Z,4.13
2023-06-11T13:58:17.925Z,4.20
2023-06-11T14:03:19.769Z,4.20
2023-06-11T14:08:22.832Z,4.10
2023-06-11T14:13:24.751Z,4.37
2023-06-11T14:18:26.469Z,4.10
2023-06-11T14:23:29.646Z,4.27
2023-06-11T14:28:31.400Z,4.17
2023-06-11T14:33:33.215Z,3.60
2023-06-11T14:38:36.609Z,3.70
2023-06-11T14:43:38.310Z,3.97
2023-06-11T14:48:40.132Z,3.77
2023-06-11T14:53:43.245Z,3.60
2023-06-11T14:58:44.945Z,3.73
2023-06-11T15:03:46.666Z,3.90
2023-06-11T15:08:49.785Z,4.00
2023-06-11T15:13:51.606Z,3.23
2023-06-11T15:18:53.340Z,3.40
2023-06-11T15:23:56.472Z,3.80
2023-06-11T15:28:59.286Z,3.50
2023-06-11T15:34:01.095Z,4.03
2023-06-11T15:39:04.234Z,3.30
2023-06-11T15:44:05.958Z,4.00
2023-06-11T15:49:07.669Z,3.50
2023-06-11T15:54:10.869Z,3.73
2023-06-11T15:59:12.652Z,3.20
2023-06-11T16:04:14.452Z,4.00
2023-06-11T16:09:17.561Z,4.07
2023-06-11T16:14:20.027Z,3.23
2023-06-11T16:19:21.775Z,3.40
2023-06-11T16:24:24.921Z,3.60
2023-06-11T16:29:26.732Z,3.23
2023-06-11T16:34:29.710Z,3.40
2023-06-11T16:39:33.068Z,3.60
2023-06-11T16:44:34.779Z,3.47
2023-06-11T16:49:36.499Z,3.87
2023-06-11T16:54:39.824Z,3.70
2023-06-11T16:59:41.634Z,3.20
2023-06-11T17:04:44.045Z,3.40
2023-06-11T17:09:47.306Z,3.50
2023-06-11T17:14:49.834Z,3.70
2023-06-11T17:19:53.121Z,3.80
2023-06-11T17:24:56.157Z,3.80
2023-06-11T17:29:57.998Z,3.50
2023-06-11T17:34:59.779Z,3.40
2023-06-11T17:40:02.850Z,3.03
2023-06-11T17:45:05.438Z,3.60
2023-06-11T17:50:08.327Z,3.40
2023-06-11T17:55:14.280Z,3.33
2023-06-11T18:00:16.997Z,3.17
2023-06-11T18:05:18.751Z,3.60
2023-06-11T18:10:21.894Z,3.30
2023-06-11T18:15:33.057Z,3.80
2023-06-11T18:20:36.942Z,3.60
2023-06-11T18:25:40.027Z,3.43
2023-06-11T18:30:42.120Z,3.90
2023-06-11T18:35:43.893Z,4.00
2023-06-11T18:40:46.930Z,3.33
2023-06-11T18:45:48.718Z,4.03
2023-06-11T18:50:50.559Z,3.80
2023-06-11T18:55:53.598Z,15.17
2023-06-11T19:00:55.407Z,5.87
2023-06-11T19:05:57.185Z,9.17
2023-06-11T19:11:00.399Z,6.07
2023-06-11T19:16:02.100Z,5.90
2023-06-11T19:21:03.867Z,7.70
2023-06-11T19:26:07.042Z,6.60
2023-06-11T19:31:08.801Z,5.37
2023-06-11T19:36:10.810Z,4.33
2023-06-11T19:41:15.771Z,4.40
2023-06-11T19:46:17.794Z,4.50
2023-06-11T19:51:20.301Z,4.70
2023-06-11T19:56:23.472Z,4.00
2023-06-11T20:01:25.391Z,4.53
2023-06-11T20:06:27.318Z,4.80
2023-06-11T20:11:30.600Z,4.30
2023-06-11T20:16:32.460Z,4.60
2023-06-11T20:21:34.269Z,4.60
2023-06-11T20:26:37.449Z,5.30
2023-06-11T20:31:39.243Z,5.37
2023-06-11T20:36:41.649Z,5.50
2023-06-11T20:41:44.704Z,5.63
2023-06-11T20:46:46.581Z,5.43
2023-06-11T20:51:48.362Z,5.50
2023-06-11T20:56:52.045Z,6.00
2023-06-11T21:01:53.842Z,5.93
2023-06-11T21:06:55.801Z,7.13
2023-06-11T21:11:59.273Z,6.70
2023-06-11T21:17:01.133Z,7.40
2023-06-11T21:22:02.961Z,7.33
2023-06-11T21:27:08.456Z,7.47
2023-06-11T21:32:10.249Z,7.20
2023-06-11T21:37:13.097Z,7.63
2023-06-11T21:42:16.232Z,7.60
2023-06-11T21:47:18.140Z,7.73
2023-06-11T21:52:22.514Z,7.63
2023-06-11T21:57:25.762Z,8.63
2023-06-11T22:02:27.661Z,8.60
2023-06-11T22:07:31.252Z,7.80
2023-06-11T22:12:41.143Z,8.30
2023-06-11T22:17:47.479Z,8.47
2023-06-11T22:22:49.384Z,8.07
2023-06-11T22:27:52.902Z,8.23
2023-06-11T22:32:54.766Z,8.97
2023-06-11T22:37:56.479Z,7.80
2023-06-11T22:42:59.632Z,7.77
2023-06-11T22:48:04.200Z,8.30
2023-06-11T22:53:05.934Z,8.70
2023-06-11T22:58:09.106Z,8.50
2023-06-11T23:03:12.717Z,8.60
2023-06-11T23:08:14.591Z,9.13
2023-06-11T23:13:17.681Z,9.00
2023-06-11T23:18:19.467Z,8.90
2023-06-11T23:23:21.204Z,9.47
2023-06-11T23:28:25.971Z,8.73
2023-06-11T23:33:31.509Z,8.90
2023-06-11T23:38:33.227Z,9.20
2023-06-11T23:43:36.799Z,9.40
2023-06-11T23:48:38.645Z,9.33
2023-06-11T23:53:40.464Z,9.00
2023-06-11T23:58:43.651Z,9.40
